sensor_id;sensor_type;location;lat;lon;timestamp;temperature;humidity
69990;DHT22;57331;52.054;5.294;2023-05-19T00:04:04;11.00;38.10
69990;DHT22;57331;52.054;5.294;2023-05-19T00:09:08;10.90;38.30
69990;DHT22;57331;52.054;5.294;2023-05-19T00:11:36;10.80;39.90
69990;DHT22;57331;52.054;5.294;2023-05-19T00:14:05;10.80;40.10
69990;DHT22;57331;52.054;5.294;2023-05-19T00:16:34;10.80;40.20
69990;DHT22;57331;52.054;5.294;2023-05-19T00:19:03;9.70;39.60
69990;DHT22;57331;52.054;5.294;2023-05-19T00:21:31;12.00;41.40
69990;DHT22;57331;52.054;5.294;2023-05-19T00:28:58;11.70;48.10
69990;DHT22;57331;52.054;5.294;2023-05-19T00:33:53;11.30;58.60
69990;DHT22;57331;52.054;5.294;2023-05-19T00:38:48;10.90;59.10
69990;DHT22;57331;52.054;5.294;2023-05-19T00:46:11;9.30;58.60
69990;DHT22;57331;52.054;5.294;2023-05-19T00:48:38;9.20;59.00
69990;DHT22;57331;52.054;5.294;2023-05-19T00:51:06;9.60;56.10
69990;DHT22;57331;52.054;5.294;2023-05-19T00:53:33;10.30;44.00
69990;DHT22;57331;52.054;5.294;2023-05-19T00:56:02;11.60;44.60
69990;DHT22;57331;52.054;5.294;2023-05-19T00:58:29;10.20;44.20
69990;DHT22;57331;52.054;5.294;2023-05-19T01:00:58;11.50;61.40
69990;DHT22;57331;52.054;5.294;2023-05-19T01:03:31;10.20;44.60
69990;DHT22;57331;52.054;5.294;2023-05-19T01:08:35;10.10;43.50
69990;DHT22;57331;52.054;5.294;2023-05-19T01:11:04;9.70;61.50
69990;DHT22;57331;52.054;5.294;2023-05-19T01:13:32;10.00;45.50
69990;DHT22;57331;52.054;5.294;2023-05-19T01:16:20;10.70;54.30
69990;DHT22;57331;52.054;5.294;2023-05-19T01:19:30;9.90;43.70
69990;DHT22;57331;52.054;5.294;2023-05-19T01:25:09;9.80;44.70
69990;DHT22;57331;52.054;5.294;2023-05-19T01:28:03;9.10;46.80
69990;DHT22;57331;52.054;5.294;2023-05-19T01:30:28;9.80;45.00
69990;DHT22;57331;52.054;5.294;2023-05-19T01:32:59;9.80;46.70
69990;DHT22;57331;52.054;5.294;2023-05-19T01:37:59;9.70;47.10
69990;DHT22;57331;52.054;5.294;2023-05-19T01:40:27;9.80;47.50
69990;DHT22;57331;52.054;5.294;2023-05-19T01:42:58;9.70;47.60
69990;DHT22;57331;52.054;5.294;2023-05-19T01:45:27;9.10;63.50
69990;DHT22;57331;52.054;5.294;2023-05-19T01:47:57;9.60;47.70
69990;DHT22;57331;52.054;5.294;2023-05-19T01:55:20;9.50;47.50
69990;DHT22;57331;52.054;5.294;2023-05-19T02:03:25;9.40;47.10
69990;DHT22;57331;52.054;5.294;2023-05-19T02:06:11;9.30;48.90
69990;DHT22;57331;52.054;5.294;2023-05-19T02:09:02;9.40;47.70
69990;DHT22;57331;52.054;5.294;2023-05-19T02:11:39;8.30;51.00
69990;DHT22;57331;52.054;5.294;2023-05-19T02:14:14;9.30;49.30
69990;DHT22;57331;52.054;5.294;2023-05-19T02:16:47;10.10;66.20
69990;DHT22;57331;52.054;5.294;2023-05-19T02:19:30;9.30;48.00
69990;DHT22;57331;52.054;5.294;2023-05-19T02:24:25;8.60;59.30
69990;DHT22;57331;52.054;5.294;2023-05-19T02:34:17;7.90;66.00
69990;DHT22;57331;52.054;5.294;2023-05-19T02:46:38;10.10;61.20
69990;DHT22;57331;52.054;5.294;2023-05-19T03:06:17;8.40;64.60
69990;DHT22;57331;52.054;5.294;2023-05-19T03:18:34;7.50;69.30
69990;DHT22;57331;52.054;5.294;2023-05-19T03:33:23;9.80;70.60
69990;DHT22;57331;52.054;5.294;2023-05-19T03:35:51;9.90;71.00
69990;DHT22;57331;52.054;5.294;2023-05-19T04:09:02;8.70;54.90
69990;DHT22;57331;52.054;5.294;2023-05-19T04:31:12;10.40;68.60
69990;DHT22;57331;52.054;5.294;2023-05-19T04:51:08;8.60;72.30
69990;DHT22;57331;52.054;5.294;2023-05-19T04:58:33;8.70;72.00
69990;DHT22;57331;52.054;5.294;2023-05-19T05:10:56;11.00;63.60
69990;DHT22;57331;52.054;5.294;2023-05-19T05:13:23;10.80;72.00
69990;DHT22;57331;52.054;5.294;2023-05-19T05:15:51;10.10;71.70
69990;DHT22;57331;52.054;5.294;2023-05-19T05:20:47;8.90;62.20
69990;DHT22;57331;52.054;5.294;2023-05-19T05:25:46;9.70;55.40
69990;DHT22;57331;52.054;5.294;2023-05-19T05:33:12;10.70;71.30
69990;DHT22;57331;52.054;5.294;2023-05-19T05:48:07;12.10;69.90
69990;DHT22;57331;52.054;5.294;2023-05-19T05:50:35;9.90;63.20
69990;DHT22;57331;52.054;5.294;2023-05-19T06:15:21;12.70;57.40
69990;DHT22;57331;52.054;5.294;2023-05-19T06:18:17;11.80;64.90
69990;DHT22;57331;52.054;5.294;2023-05-19T06:28:10;12.60;47.80
69990;DHT22;57331;52.054;5.294;2023-05-19T06:40:57;12.10;61.30
69990;DHT22;57331;52.054;5.294;2023-05-19T06:58:29;13.00;51.30
69990;DHT22;57331;52.054;5.294;2023-05-19T07:03:29;15.00;50.20
69990;DHT22;57331;52.054;5.294;2023-05-19T07:15:54;15.60;55.10
69990;DHT22;57331;52.054;5.294;2023-05-19T07:20:57;16.10;53.00
69990;DHT22;57331;52.054;5.294;2023-05-19T07:23:26;15.40;36.00
69990;DHT22;57331;52.054;5.294;2023-05-19T07:25:54;15.50;36.80
69990;DHT22;57331;52.054;5.294;2023-05-19T07:38:12;15.00;39.60
69990;DHT22;57331;52.054;5.294;2023-05-19T07:40:39;14.90;47.30
69990;DHT22;57331;52.054;5.294;2023-05-19T08:00:19;18.30;32.30
69990;DHT22;57331;52.054;5.294;2023-05-19T08:12:36;17.70;42.50
69990;DHT22;57331;52.054;5.294;2023-05-19T08:22:25;16.50;41.60
69990;DHT22;57331;52.054;5.294;2023-05-19T08:39:37;18.80;29.40
69990;DHT22;57331;52.054;5.294;2023-05-19T08:44:36;17.70;25.50
69990;DHT22;57331;52.054;5.294;2023-05-19T08:49:51;17.10;30.10
69990;DHT22;57331;52.054;5.294;2023-05-19T08:55:08;18.70;22.70
69990;DHT22;57331;52.054;5.294;2023-05-19T08:57:39;18.70;22.50
69990;DHT22;57331;52.054;5.294;2023-05-19T09:15:17;19.20;18.60
69990;DHT22;57331;52.054;5.294;2023-05-19T09:17:47;20.60;23.10
69990;DHT22;57331;52.054;5.294;2023-05-19T09:20:16;19.40;18.00
69990;DHT22;57331;52.054;5.294;2023-05-19T09:22:44;19.50;28.50
69990;DHT22;57331;52.054;5.294;2023-05-19T09:25:21;19.70;16.90
69990;DHT22;57331;52.054;5.294;2023-05-19T09:30:16;19.90;18.20
69990;DHT22;57331;52.054;5.294;2023-05-19T09:40:13;23.10;23.10
69990;DHT22;57331;52.054;5.294;2023-05-19T09:42:41;21.50;23.60
69990;DHT22;57331;52.054;5.294;2023-05-19T09:47:38;22.40;12.30
69990;DHT22;57331;52.054;5.294;2023-05-19T09:50:06;23.90;22.40
69990;DHT22;57331;52.054;5.294;2023-05-19T09:52:35;22.70;11.40
69990;DHT22;57331;52.054;5.294;2023-05-19T09:55:03;22.00;20.90
69990;DHT22;57331;52.054;5.294;2023-05-19T09:57:33;23.10;10.70
69990;DHT22;57331;52.054;5.294;2023-05-19T10:00:07;23.30;10.30
69990;DHT22;57331;52.054;5.294;2023-05-19T10:02:42;20.10;18.50
69990;DHT22;57331;52.054;5.294;2023-05-19T10:05:13;23.40;9.70
69990;DHT22;57331;52.054;5.294;2023-05-19T10:07:43;23.40;9.10
69990;DHT22;57331;52.054;5.294;2023-05-19T10:10:11;23.50;9.10
69990;DHT22;57331;52.054;5.294;2023-05-19T10:12:40;25.00;15.80
69990;DHT22;57331;52.054;5.294;2023-05-19T10:15:09;22.00;7.60
69990;DHT22;57331;52.054;5.294;2023-05-19T10:17:38;22.50;17.70
69990;DHT22;57331;52.054;5.294;2023-05-19T10:20:16;24.80;18.60
69990;DHT22;57331;52.054;5.294;2023-05-19T10:22:46;25.30;18.60
69990;DHT22;57331;52.054;5.294;2023-05-19T10:25:14;22.80;9.80
69990;DHT22;57331;52.054;5.294;2023-05-19T10:27:59;23.40;14.60
69990;DHT22;57331;52.054;5.294;2023-05-19T10:30:28;24.10;17.70
69990;DHT22;57331;52.054;5.294;2023-05-19T10:32:59;23.00;8.00
69990;DHT22;57331;52.054;5.294;2023-05-19T10:35:52;23.80;16.30
69990;DHT22;57331;52.054;5.294;2023-05-19T10:38:33;25.10;7.40
69990;DHT22;57331;52.054;5.294;2023-05-19T10:43:58;24.20;16.20
69990;DHT22;57331;52.054;5.294;2023-05-19T10:46:29;23.80;15.60
69990;DHT22;57331;52.054;5.294;2023-05-19T10:48:56;25.40;16.00
69990;DHT22;57331;52.054;5.294;2023-05-19T10:51:33;24.00;15.10
69990;DHT22;57331;52.054;5.294;2023-05-19T10:54:07;25.00;14.40
69990;DHT22;57331;52.054;5.294;2023-05-19T10:56:43;26.10;15.30
69990;DHT22;57331;52.054;5.294;2023-05-19T10:59:33;27.00;13.90
69990;DHT22;57331;52.054;5.294;2023-05-19T11:02:05;25.40;5.50
69990;DHT22;57331;52.054;5.294;2023-05-19T11:04:48;24.60;5.00
69990;DHT22;57331;52.054;5.294;2023-05-19T11:07:20;25.50;5.70
69990;DHT22;57331;52.054;5.294;2023-05-19T11:09:49;26.20;14.60
69990;DHT22;57331;52.054;5.294;2023-05-19T11:12:21;26.90;11.50
69990;DHT22;57331;52.054;5.294;2023-05-19T11:14:52;25.20;13.80
69990;DHT22;57331;52.054;5.294;2023-05-19T11:17:19;27.30;14.10
69990;DHT22;57331;52.054;5.294;2023-05-19T11:19:56;25.40;13.10
69990;DHT22;57331;52.054;5.294;2023-05-19T11:22:26;27.60;14.30
69990;DHT22;57331;52.054;5.294;2023-05-19T11:24:56;27.90;14.50
69990;DHT22;57331;52.054;5.294;2023-05-19T11:27:32;26.10;13.50
69990;DHT22;57331;52.054;5.294;2023-05-19T11:30:08;25.90;12.80
69990;DHT22;57331;52.054;5.294;2023-05-19T11:40:06;27.50;4.00
69990;DHT22;57331;52.054;5.294;2023-05-19T11:42:34;28.80;12.50
69990;DHT22;57331;52.054;5.294;2023-05-19T11:45:03;27.60;3.00
69990;DHT22;57331;52.054;5.294;2023-05-19T11:50:21;26.30;10.50
69990;DHT22;57331;52.054;5.294;2023-05-19T11:52:49;25.90;10.30
69990;DHT22;57331;52.054;5.294;2023-05-19T11:55:18;27.20;2.40
69990;DHT22;57331;52.054;5.294;2023-05-19T11:57:57;28.50;11.90
69990;DHT22;57331;52.054;5.294;2023-05-19T12:00:37;27.40;2.50
69990;DHT22;57331;52.054;5.294;2023-05-19T12:05:36;26.60;7.20
69990;DHT22;57331;52.054;5.294;2023-05-19T12:08:09;27.00;10.50
69990;DHT22;57331;52.054;5.294;2023-05-19T12:10:37;26.90;2.30
69990;DHT22;57331;52.054;5.294;2023-05-19T12:13:05;27.40;11.00
69990;DHT22;57331;52.054;5.294;2023-05-19T12:18:02;26.00;9.60
69990;DHT22;57331;52.054;5.294;2023-05-19T12:20:29;26.40;9.30
69990;DHT22;57331;52.054;5.294;2023-05-19T12:23:02;26.20;9.50
69990;DHT22;57331;52.054;5.294;2023-05-19T12:25:29;29.00;4.30
69990;DHT22;57331;52.054;5.294;2023-05-19T12:28:00;28.90;11.10
69990;DHT22;57331;52.054;5.294;2023-05-19T12:30:31;26.10;9.40
69990;DHT22;57331;52.054;5.294;2023-05-19T12:33:01;27.30;1.90
69990;DHT22;57331;52.054;5.294;2023-05-19T12:35:29;28.50;10.90
69990;DHT22;57331;52.054;5.294;2023-05-19T12:38:05;27.40;1.80
69990;DHT22;57331;52.054;5.294;2023-05-19T12:40:33;28.70;10.40
69990;DHT22;57331;52.054;5.294;2023-05-19T12:43:01;27.20;9.90
69990;DHT22;57331;52.054;5.294;2023-05-19T12:45:35;27.30;1.50
69990;DHT22;57331;52.054;5.294;2023-05-19T12:48:05;28.50;3.00
69990;DHT22;57331;52.054;5.294;2023-05-19T12:50:37;26.80;9.00
69990;DHT22;57331;52.054;5.294;2023-05-19T12:53:07;27.40;9.80
69990;DHT22;57331;52.054;5.294;2023-05-19T12:55:43;25.60;8.90
69990;DHT22;57331;52.054;5.294;2023-05-19T12:58:11;27.90;1.90
69990;DHT22;57331;52.054;5.294;2023-05-19T13:00:45;25.60;8.90
69990;DHT22;57331;52.054;5.294;2023-05-19T13:03:17;27.00;1.20
69990;DHT22;57331;52.054;5.294;2023-05-19T13:05:47;26.60;8.90
69990;DHT22;57331;52.054;5.294;2023-05-19T13:08:21;27.20;1.00
69990;DHT22;57331;52.054;5.294;2023-05-19T13:15:45;28.90;9.80
69990;DHT22;57331;52.054;5.294;2023-05-19T13:18:15;27.50;8.40
69990;DHT22;57331;52.054;5.294;2023-05-19T13:20:42;27.90;8.60
69990;DHT22;57331;52.054;5.294;2023-05-19T13:23:10;28.70;8.80
69990;DHT22;57331;52.054;5.294;2023-05-19T13:25:38;32.20;10.40
69990;DHT22;57331;52.054;5.294;2023-05-19T13:28:06;29.60;8.70
69990;DHT22;57331;52.054;5.294;2023-05-19T13:30:35;29.90;8.70
69990;DHT22;57331;52.054;5.294;2023-05-19T13:33:02;28.20;7.60
69990;DHT22;57331;52.054;5.294;2023-05-19T13:35:30;28.50;7.50
69990;DHT22;57331;52.054;5.294;2023-05-19T13:38:07;29.20;7.30
69990;DHT22;57331;52.054;5.294;2023-05-19T13:40:38;29.90;7.80
69990;DHT22;57331;52.054;5.294;2023-05-19T13:43:06;29.80;1.00
69990;DHT22;57331;52.054;5.294;2023-05-19T13:45:34;30.20;8.30
69990;DHT22;57331;52.054;5.294;2023-05-19T13:48:01;29.80;1.00
69990;DHT22;57331;52.054;5.294;2023-05-19T13:50:28;30.00;1.00
69990;DHT22;57331;52.054;5.294;2023-05-19T13:52:55;30.50;7.70
69990;DHT22;57331;52.054;5.294;2023-05-19T13:55:22;29.00;6.90
69990;DHT22;57331;52.054;5.294;2023-05-19T13:57:49;31.30;7.70
69990;DHT22;57331;52.054;5.294;2023-05-19T14:00:17;31.00;7.80
69990;DHT22;57331;52.054;5.294;2023-05-19T14:02:44;29.50;6.80
69990;DHT22;57331;52.054;5.294;2023-05-19T14:05:12;31.70;8.30
69990;DHT22;57331;52.054;5.294;2023-05-19T14:07:39;31.80;7.80
69990;DHT22;57331;52.054;5.294;2023-05-19T14:10:06;30.70;6.20
69990;DHT22;57331;52.054;5.294;2023-05-19T14:12:34;31.80;1.00
69990;DHT22;57331;52.054;5.294;2023-05-19T14:15:21;31.80;4.90
69990;DHT22;57331;52.054;5.294;2023-05-19T14:17:48;31.60;5.60
69990;DHT22;57331;52.054;5.294;2023-05-19T14:20:15;31.00;5.50
69990;DHT22;57331;52.054;5.294;2023-05-19T14:22:42;30.40;5.60
69990;DHT22;57331;52.054;5.294;2023-05-19T14:25:09;30.00;5.50
69990;DHT22;57331;52.054;5.294;2023-05-19T14:27:36;29.90;5.60
69990;DHT22;57331;52.054;5.294;2023-05-19T14:30:06;32.20;6.60
69990;DHT22;57331;52.054;5.294;2023-05-19T14:32:33;31.00;1.00
69990;DHT22;57331;52.054;5.294;2023-05-19T14:35:00;30.80;1.00
69990;DHT22;57331;52.054;5.294;2023-05-19T14:37:27;30.70;7.00
69990;DHT22;57331;52.054;5.294;2023-05-19T14:39:55;31.10;6.30
69990;DHT22;57331;52.054;5.294;2023-05-19T14:42:23;31.20;5.60
69990;DHT22;57331;52.054;5.294;2023-05-19T14:44:50;31.40;5.00
69990;DHT22;57331;52.054;5.294;2023-05-19T14:47:17;32.30;4.80
69990;DHT22;57331;52.054;5.294;2023-05-19T14:49:44;32.30;1.00
69990;DHT22;57331;52.054;5.294;2023-05-19T14:52:11;35.40;6.60
69990;DHT22;57331;52.054;5.294;2023-05-19T14:54:38;32.20;4.00
69990;DHT22;57331;52.054;5.294;2023-05-19T14:57:05;32.70;1.00
69990;DHT22;57331;52.054;5.294;2023-05-19T14:59:36;32.00;4.80
69990;DHT22;57331;52.054;5.294;2023-05-19T15:02:04;31.60;4.40
69990;DHT22;57331;52.054;5.294;2023-05-19T15:04:31;32.70;1.00
69990;DHT22;57331;52.054;5.294;2023-05-19T15:06:58;32.20;2.60
69990;DHT22;57331;52.054;5.294;2023-05-19T15:09:28;31.70;2.90
69990;DHT22;57331;52.054;5.294;2023-05-19T15:11:55;33.00;1.00
69990;DHT22;57331;52.054;5.294;2023-05-19T15:14:22;31.70;3.70
69990;DHT22;57331;52.054;5.294;2023-05-19T15:16:49;30.70;5.30
69990;DHT22;57331;52.054;5.294;2023-05-19T15:19:16;30.20;3.90
69990;DHT22;57331;52.054;5.294;2023-05-19T15:21:44;31.60;1.00
69990;DHT22;57331;52.054;5.294;2023-05-19T15:24:11;32.00;1.00
69990;DHT22;57331;52.054;5.294;2023-05-19T15:26:38;31.40;3.80
69990;DHT22;57331;52.054;5.294;2023-05-19T15:29:05;32.30;1.00
69990;DHT22;57331;52.054;5.294;2023-05-19T15:31:32;32.40;1.00
69990;DHT22;57331;52.054;5.294;2023-05-19T15:34:03;31.70;4.30
69990;DHT22;57331;52.054;5.294;2023-05-19T15:36:29;33.40;3.60
69990;DHT22;57331;52.054;5.294;2023-05-19T15:38:57;33.50;1.00
69990;DHT22;57331;52.054;5.294;2023-05-19T15:41:23;33.90;1.00
69990;DHT22;57331;52.054;5.294;2023-05-19T15:43:51;33.90;1.00
69990;DHT22;57331;52.054;5.294;2023-05-19T15:46:19;34.10;2.10
69990;DHT22;57331;52.054;5.294;2023-05-19T15:48:46;33.60;1.50
69990;DHT22;57331;52.054;5.294;2023-05-19T15:51:13;35.10;1.00
69990;DHT22;57331;52.054;5.294;2023-05-19T15:53:40;35.20;1.00
69990;DHT22;57331;52.054;5.294;2023-05-19T15:56:07;35.50;1.00
69990;DHT22;57331;52.054;5.294;2023-05-19T15:58:34;35.30;1.40
69990;DHT22;57331;52.054;5.294;2023-05-19T16:01:01;35.40;1.00
69990;DHT22;57331;52.054;5.294;2023-05-19T16:03:28;36.70;1.80
69990;DHT22;57331;52.054;5.294;2023-05-19T16:05:56;35.30;1.00
69990;DHT22;57331;52.054;5.294;2023-05-19T16:08:23;32.10;1.70
69990;DHT22;57331;52.054;5.294;2023-05-19T16:10:51;33.30;3.30
69990;DHT22;57331;52.054;5.294;2023-05-19T16:13:19;33.10;1.00
69990;DHT22;57331;52.054;5.294;2023-05-19T16:15:46;34.10;4.40
69990;DHT22;57331;52.054;5.294;2023-05-19T16:18:14;31.70;2.80
69990;DHT22;57331;52.054;5.294;2023-05-19T16:20:42;31.90;4.00
69990;DHT22;57331;52.054;5.294;2023-05-19T16:23:09;32.50;4.60
69990;DHT22;57331;52.054;5.294;2023-05-19T16:25:36;31.30;4.90
69990;DHT22;57331;52.054;5.294;2023-05-19T16:28:03;31.10;1.00
69990;DHT22;57331;52.054;5.294;2023-05-19T16:30:30;28.90;6.60
69990;DHT22;57331;52.054;5.294;2023-05-19T16:32:58;29.20;1.00
69990;DHT22;57331;52.054;5.294;2023-05-19T16:35:25;27.50;6.40
69990;DHT22;57331;52.054;5.294;2023-05-19T16:37:55;26.80;6.80
69990;DHT22;57331;52.054;5.294;2023-05-19T16:40:22;28.90;8.30
69990;DHT22;57331;52.054;5.294;2023-05-19T16:42:51;28.00;8.60
69990;DHT22;57331;52.054;5.294;2023-05-19T16:45:18;26.20;7.80
69990;DHT22;57331;52.054;5.294;2023-05-19T16:50:12;28.20;8.70
69990;DHT22;57331;52.054;5.294;2023-05-19T16:52:39;30.20;7.90
69990;DHT22;57331;52.054;5.294;2023-05-19T16:55:06;31.40;7.60
69990;DHT22;57331;52.054;5.294;2023-05-19T16:57:34;30.70;1.00
69990;DHT22;57331;52.054;5.294;2023-05-19T17:00:01;32.40;4.20
69990;DHT22;57331;52.054;5.294;2023-05-19T17:02:29;32.60;1.00
69990;DHT22;57331;52.054;5.294;2023-05-19T17:04:56;34.70;3.60
69990;DHT22;57331;52.054;5.294;2023-05-19T17:07:23;32.00;1.90
69990;DHT22;57331;52.054;5.294;2023-05-19T17:09:50;32.80;2.40
69990;DHT22;57331;52.054;5.294;2023-05-19T17:12:19;30.80;3.40
69990;DHT22;57331;52.054;5.294;2023-05-19T17:14:46;31.20;1.00
69990;DHT22;57331;52.054;5.294;2023-05-19T17:17:12;28.70;6.70
69990;DHT22;57331;52.054;5.294;2023-05-19T17:19:40;28.90;7.90
69990;DHT22;57331;52.054;5.294;2023-05-19T17:22:07;25.80;7.10
69990;DHT22;57331;52.054;5.294;2023-05-19T17:27:01;25.10;8.80
69990;DHT22;57331;52.054;5.294;2023-05-19T17:29:28;24.20;9.10
69990;DHT22;57331;52.054;5.294;2023-05-19T17:31:55;25.10;10.00
69990;DHT22;57331;52.054;5.294;2023-05-19T17:36:49;28.60;9.50
69990;DHT22;57331;52.054;5.294;2023-05-19T17:39:16;28.80;8.90
69990;DHT22;57331;52.054;5.294;2023-05-19T17:41:45;27.20;8.30
69990;DHT22;57331;52.054;5.294;2023-05-19T17:44:12;28.40;5.30
69990;DHT22;57331;52.054;5.294;2023-05-19T17:46:40;28.20;7.70
69990;DHT22;57331;52.054;5.294;2023-05-19T17:49:07;26.60;7.10
69990;DHT22;57331;52.054;5.294;2023-05-19T17:51:36;27.40;7.90
69990;DHT22;57331;52.054;5.294;2023-05-19T17:54:03;26.30;8.00
69990;DHT22;57331;52.054;5.294;2023-05-19T17:56:33;26.00;9.00
69990;DHT22;57331;52.054;5.294;2023-05-19T17:59:05;25.30;9.70
69990;DHT22;57331;52.054;5.294;2023-05-19T18:04:00;24.60;2.70
69990;DHT22;57331;52.054;5.294;2023-05-19T18:06:28;23.40;11.00
69990;DHT22;57331;52.054;5.294;2023-05-19T18:08:57;23.60;8.10
69990;DHT22;57331;52.054;5.294;2023-05-19T18:16:21;24.30;12.70
69990;DHT22;57331;52.054;5.294;2023-05-19T18:21:16;25.00;13.40
69990;DHT22;57331;52.054;5.294;2023-05-19T18:23:44;24.80;10.80
69990;DHT22;57331;52.054;5.294;2023-05-19T18:28:39;21.90;6.30
69990;DHT22;57331;52.054;5.294;2023-05-19T18:31:07;23.60;5.10
69990;DHT22;57331;52.054;5.294;2023-05-19T18:33:35;22.60;12.50
69990;DHT22;57331;52.054;5.294;2023-05-19T18:36:02;22.20;12.70
69990;DHT22;57331;52.054;5.294;2023-05-19T18:38:29;22.30;13.30
69990;DHT22;57331;52.054;5.294;2023-05-19T18:45:51;23.00;9.30
69990;DHT22;57331;52.054;5.294;2023-05-19T18:50:46;20.80;15.20
69990;DHT22;57331;52.054;5.294;2023-05-19T18:53:13;21.20;16.00
69990;DHT22;57331;52.054;5.294;2023-05-19T18:58:08;21.50;17.00
69990;DHT22;57331;52.054;5.294;2023-05-19T19:17:48;19.00;17.60
69990;DHT22;57331;52.054;5.294;2023-05-19T19:30:05;18.90;15.50
69990;DHT22;57331;52.054;5.294;2023-05-19T19:32:32;20.10;21.70
69990;DHT22;57331;52.054;5.294;2023-05-19T19:34:59;19.40;21.50
69990;DHT22;57331;52.054;5.294;2023-05-19T19:42:21;18.30;15.40
69990;DHT22;57331;52.054;5.294;2023-05-19T19:49:42;19.80;23.30
69990;DHT22;57331;52.054;5.294;2023-05-19T19:59:33;17.70;23.60
69990;DHT22;57331;52.054;5.294;2023-05-19T20:06:55;17.10;20.20
69990;DHT22;57331;52.054;5.294;2023-05-19T20:19:12;17.00;26.00
69990;DHT22;57331;52.054;5.294;2023-05-19T20:26:34;17.50;16.30
69990;DHT22;57331;52.054;5.294;2023-05-19T20:29:01;18.40;27.60
69990;DHT22;57331;52.054;5.294;2023-05-19T20:31:28;16.90;27.30
69990;DHT22;57331;52.054;5.294;2023-05-19T20:43:48;17.90;29.30
69990;DHT22;57331;52.054;5.294;2023-05-19T20:51:10;16.70;22.80
69990;DHT22;57331;52.054;5.294;2023-05-19T21:01:00;16.00;33.00
69990;DHT22;57331;52.054;5.294;2023-05-19T21:03:27;15.60;27.70
69990;DHT22;57331;52.054;5.294;2023-05-19T21:13:18;17.60;37.80
69990;DHT22;57331;52.054;5.294;2023-05-19T21:15:45;16.50;37.80
69990;DHT22;57331;52.054;5.294;2023-05-19T21:20:40;17.30;34.90
69990;DHT22;57331;52.054;5.294;2023-05-19T21:28:01;14.90;39.60
69990;DHT22;57331;52.054;5.294;2023-05-19T21:30:28;15.10;40.30
69990;DHT22;57331;52.054;5.294;2023-05-19T21:47:40;15.00;43.20
69990;DHT22;57331;52.054;5.294;2023-05-19T21:50:07;17.10;44.90
69990;DHT22;57331;52.054;5.294;2023-05-19T22:09:52;14.20;44.60
69990;DHT22;57331;52.054;5.294;2023-05-19T22:19:41;16.70;35.80
69990;DHT22;57331;52.054;5.294;2023-05-19T22:24:40;16.10;46.20
69990;DHT22;57331;52.054;5.294;2023-05-19T22:27:07;15.00;46.50
69990;DHT22;57331;52.054;5.294;2023-05-19T22:29:35;15.10;31.20
69990;DHT22;57331;52.054;5.294;2023-05-19T22:32:06;16.40;46.80
69990;DHT22;57331;52.054;5.294;2023-05-19T22:39:29;14.70;46.20
69990;DHT22;57331;52.054;5.294;2023-05-19T22:41:56;13.80;45.80
69990;DHT22;57331;52.054;5.294;2023-05-19T22:44:23;14.80;40.60
69990;DHT22;57331;52.054;5.294;2023-05-19T22:49:17;14.90;45.40
69990;DHT22;57331;52.054;5.294;2023-05-19T22:54:11;15.90;47.50
69990;DHT22;57331;52.054;5.294;2023-05-19T23:01:38;15.90;47.70
69990;DHT22;57331;52.054;5.294;2023-05-19T23:04:05;15.50;47.50
69990;DHT22;57331;52.054;5.294;2023-05-19T23:06:32;15.70;47.70
69990;DHT22;57331;52.054;5.294;2023-05-19T23:09:03;13.50;45.90
69990;DHT22;57331;52.054;5.294;2023-05-19T23:11:30;13.40;46.90
69990;DHT22;57331;52.054;5.294;2023-05-19T23:13:57;13.50;45.40
69990;DHT22;57331;52.054;5.294;2023-05-19T23:16:24;14.20;41.00
69990;DHT22;57331;52.054;5.294;2023-05-19T23:28:41;14.10;38.10
69990;DHT22;57331;52.054;5.294;2023-05-19T23:31:08;14.70;48.70
69990;DHT22;57331;52.054;5.294;2023-05-19T23:36:08;14.00;37.10
69990;DHT22;57331;52.054;5.294;2023-05-19T23:38:36;14.00;33.10
69990;DHT22;57331;52.054;5.294;2023-05-19T23:48:29;14.60;49.60
69990;DHT22;57331;52.054;5.294;2023-05-19T23:50:57;15.10;39.80
